Time;durP1;ratioP1;P1;durP2;ratioP2;P2;SDS_P1;SDS_P2;PMS_P1;PMS_P2;Temp;Humidity;BMP_temperature;BMP_pressure;BME280_temperature;BME280_humidity;BME280_pressure;Samples;Min_cycle;Max_cycle;Signal;HPM_P1;HPM_P2
2022/06/24 00:00:46;;;;;;;0.30;0.30;;;;;;;14.58;59.24;99125.00;4732887;30;20070;-89
2022/06/24 00:03:26;;;;;;;0.30;0.30;;;;;;;14.35;59.48;99104.53;4708967;30;20045;-91
2022/06/24 00:06:16;;;;;;;;;;;;;;;14.38;59.04;99120.28;4712520;30;20216;-93
2022/06/24 00:08:52;;;;;;;0.30;0.30;;;;;;;14.30;59.39;99106.19;4711172;30;19978;-94
2022/06/24 00:11:39;;;;;;;0.30;0.30;;;;;;;14.30;58.76;99106.19;4701218;30;20060;-95
2022/06/24 00:14:34;;;;;;;0.30;0.30;;;;;;;14.24;58.91;99090.94;4701191;30;20052;-96
2022/06/24 00:17:30;;;;;;;0.22;0.22;;;;;;;14.26;59.50;99112.41;4745249;30;20095;-95
2022/06/24 00:20:45;;;;;;;0.30;0.30;;;;;;;14.29;59.47;99126.25;4746752;30;20060;-95
2022/06/24 00:23:32;;;;;;;0.30;0.30;;;;;;;14.12;59.33;99112.06;4743175;29;20086;-92
2022/06/24 00:25:59;;;;;;;0.32;0.32;;;;;;;14.12;58.68;99108.53;4760545;29;20075;-92
2022/06/24 00:28:31;;;;;;;0.30;0.30;;;;;;;14.14;57.27;99109.91;4773340;30;20066;-96
2022/06/24 00:31:04;;;;;;;0.30;0.30;;;;;;;14.20;57.91;99116.97;4737006;30;20464;-96
2022/06/24 00:33:36;;;;;;;0.32;0.32;;;;;;;14.14;58.25;99125.38;4739004;30;20067;-96
2022/06/24 00:36:13;;;;;;;0.30;0.30;;;;;;;14.04;58.26;99116.09;4765110;30;20055;-95
2022/06/24 00:38:40;;;;;;;0.30;0.30;;;;;;;14.05;57.68;99119.63;4781959;30;20123;-95
2022/06/24 00:41:25;;;;;;;0.30;0.30;;;;;;;14.05;58.12;99123.19;4752257;30;20052;-95
2022/06/24 00:44:03;;;;;;;0.30;0.30;;;;;;;14.07;57.40;99120.19;4764727;24;20123;-94
2022/06/24 00:46:35;;;;;;;0.30;0.30;;;;;;;14.12;57.25;99127.53;4771234;29;20132;-96
2022/06/24 00:49:05;;;;;;;0.30;0.30;;;;;;;14.08;57.71;99130.78;4765050;30;20425;-94
2022/06/24 00:51:36;;;;;;;0.30;0.30;;;;;;;14.03;57.21;99121.81;4764344;30;20056;-96
2022/06/24 00:54:13;;;;;;;0.30;0.30;;;;;;;14.07;55.91;99133.75;4765399;30;20060;-96
2022/06/24 00:56:43;;;;;;;0.30;0.30;;;;;;;14.09;55.30;99129.69;4780313;30;20048;-95
2022/06/24 00:59:14;;;;;;;0.30;0.30;;;;;;;14.17;53.92;99127.56;4769548;30;20063;-96
2022/06/24 01:01:58;;;;;;;0.30;0.30;;;;;;;14.26;53.48;99134.94;4759392;29;20060;-96
2022/06/24 01:04:42;;;;;;;0.30;0.30;;;;;;;14.36;53.31;99136.06;4778205;29;20058;-90
2022/06/24 01:07:24;;;;;;;0.30;0.30;;;;;;;14.28;53.05;99132.78;4761373;29;20033;-94
2022/06/24 01:10:32;;;;;;;0.30;0.30;;;;;;;14.48;53.25;99150.19;4751831;30;20048;-96
2022/06/24 01:13:32;;;;;;;0.30;0.30;;;;;;;14.32;52.98;99144.72;4780569;30;20056;-95
2022/06/24 01:16:15;;;;;;;0.30;0.30;;;;;;;14.36;53.01;99153.16;4770737;29;20028;-93
2022/06/24 01:18:57;;;;;;;0.30;0.30;;;;;;;14.29;53.14;99142.53;4772499;30;20052;-96
2022/06/24 01:21:47;;;;;;;0.30;0.30;;;;;;;14.27;52.98;99144.69;4750617;30;20072;-96
2022/06/24 01:24:19;;;;;;;0.30;0.30;;;;;;;14.36;53.00;99155.06;4765977;30;20070;-96
2022/06/24 01:26:51;;;;;;;0.30;0.30;;;;;;;14.36;53.25;99153.16;4770313;30;20087;-96
2022/06/24 01:29:20;;;;;;;0.30;0.30;;;;;;;14.35;53.65;99158.84;4781659;30;20154;-95
2022/06/24 01:31:49;;;;;;;0.30;0.30;;;;;;;14.34;53.45;99155.31;4764412;30;20082;-95
2022/06/24 01:34:19;;;;;;;0.30;0.30;;;;;;;14.36;53.28;99157.78;4761543;30;20425;-96
2022/06/24 01:36:50;;;;;;;0.30;0.30;;;;;;;14.34;53.35;99159.94;4763338;30;20044;-95
2022/06/24 01:39:34;;;;;;;0.30;0.30;;;;;;;14.35;53.82;99167.00;4777088;30;20064;-95
2022/06/24 01:42:05;;;;;;;0.30;0.30;;;;;;;14.36;53.84;99152.34;4763826;30;20052;-95
2022/06/24 01:44:48;;;;;;;0.30;0.30;;;;;;;14.50;53.69;99161.63;4756818;30;20064;-96
2022/06/24 01:47:37;;;;;;;0.30;0.30;;;;;;;14.47;53.83;99154.00;4768945;30;20124;-94
2022/06/24 01:50:36;;;;;;;0.30;0.30;;;;;;;14.61;53.42;99174.19;4768214;30;20063;-95
2022/06/24 01:53:11;;;;;;;0.30;0.30;;;;;;;14.47;53.24;99149.38;4747021;30;20390;-95
2022/06/24 01:55:38;;;;;;;0.30;0.30;;;;;;;14.58;53.79;99171.97;4774459;30;20056;-94
2022/06/24 01:58:06;;;;;;;0.30;0.30;;;;;;;14.56;54.00;99167.91;4764213;30;20067;-96
2022/06/24 02:00:51;;;;;;;0.30;0.30;;;;;;;14.57;54.79;99166.84;4751649;30;20123;-94
2022/06/24 02:03:19;;;;;;;0.30;0.30;;;;;;;14.56;54.35;99168.75;4750096;30;20071;-96
2022/06/24 02:06:22;;;;;;;0.30;0.30;;;;;;;14.77;53.96;99185.91;4737403;30;20064;-95
2022/06/24 02:09:05;;;;;;;0.30;0.30;;;;;;;14.67;54.92;99164.16;4765173;30;20052;-96
2022/06/24 02:14:33;;;;;;;0.30;0.30;;;;;;;14.69;54.73;99170.94;4784829;30;20066;-95
2022/06/24 02:17:01;;;;;;;0.30;0.30;;;;;;;14.80;53.73;99176.41;4782823;30;20509;-96
2022/06/24 02:19:29;;;;;;;0.30;0.30;;;;;;;14.79;54.53;99162.00;4782907;30;20071;-96
2022/06/24 02:21:57;;;;;;;0.30;0.30;;;;;;;14.89;53.60;99172.09;4788558;29;20472;-96
2022/06/24 02:24:26;;;;;;;0.30;0.30;;;;;;;14.97;53.86;99173.47;4786135;30;20058;-96
2022/06/24 02:26:54;;;;;;;0.30;0.30;;;;;;;15.05;54.33;99172.94;4787247;30;20055;-96
2022/06/24 02:29:48;;;;;;;0.30;0.30;;;;;;;15.18;54.16;99180.53;4788724;30;20036;-96
2022/06/24 02:32:40;;;;;;;0.30;0.30;;;;;;;15.17;54.60;99189.81;4760174;30;20090;-96
2022/06/24 02:35:33;;;;;;;0.30;0.30;;;;;;;15.22;54.79;99186.25;4775366;30;20105;-95
2022/06/24 02:38:22;;;;;;;0.30;0.30;;;;;;;15.28;53.84;99179.75;4731836;30;20057;-96
2022/06/24 02:41:19;;;;;;;0.30;0.30;;;;;;;15.28;54.69;99152.56;4740684;30;20083;-95
2022/06/24 02:44:07;;;;;;;0.30;0.30;;;;;;;15.38;54.36;99160.72;4718963;30;20079;-96
2022/06/24 02:46:50;;;;;;;0.30;0.30;;;;;;;15.61;54.99;99184.63;5067993;24;20052;-90
2022/06/24 02:49:20;;;;;;;0.30;0.30;;;;;;;15.75;52.56;99184.13;4794464;29;20051;-95
2022/06/24 02:51:50;;;;;;;0.30;0.30;;;;;;;15.95;52.46;99192.25;4789821;30;20070;-96
2022/06/24 02:54:22;;;;;;;0.30;0.30;;;;;;;15.93;53.15;99182.72;4778566;30;20062;-96
2022/06/24 02:56:49;;;;;;;0.30;0.30;;;;;;;15.97;54.12;99176.44;4792106;30;20119;-96
2022/06/24 02:59:42;;;;;;;0.30;0.30;;;;;;;16.24;53.52;99191.63;4787114;30;20071;-95
2022/06/24 03:02:10;;;;;;;0.30;0.30;;;;;;;16.17;53.40;99182.94;4784086;30;20056;-95
2022/06/24 03:04:37;;;;;;;0.30;0.30;;;;;;;16.32;53.10;99184.78;4785413;30;20060;-94
2022/06/24 03:07:19;;;;;;;0.30;0.30;;;;;;;16.54;52.54;99192.63;4760897;30;20056;-95
2022/06/24 03:10:08;;;;;;;0.30;0.30;;;;;;;16.58;51.45;99182.78;4758952;30;20067;-96
2022/06/24 03:12:51;;;;;;;0.30;0.30;;;;;;;16.67;51.71;99187.38;4806020;24;20070;-96
2022/06/24 03:15:19;;;;;;;0.30;0.30;;;;;;;16.76;51.21;99193.06;4787597;30;20051;-96
2022/06/24 03:17:46;;;;;;;0.30;0.30;;;;;;;16.89;50.85;99203.38;4788486;30;20060;-96
2022/06/24 03:20:50;;;;;;;0.30;0.30;;;;;;;17.08;50.10;99213.59;4787579;30;20036;-95
2022/06/24 03:23:40;;;;;;;0.30;0.30;;;;;;;17.14;49.30;99211.66;4792183;30;20060;-94
2022/06/24 03:26:32;;;;;;;0.30;0.30;;;;;;;17.23;49.46;99213.50;4782097;30;20056;-95
2022/06/24 03:29:17;;;;;;;0.30;0.30;;;;;;;17.21;48.64;99193.88;4780899;24;20083;-96
2022/06/24 03:31:52;;;;;;;0.30;0.30;;;;;;;17.40;49.55;99198.69;4923530;24;20098;-96
2022/06/24 03:35:03;;;;;;;0.30;0.30;;;;;;;17.59;49.30;99220.63;4790500;30;20158;-96
2022/06/24 03:38:30;;;;;;;0.20;0.20;;;;;;;17.62;48.78;99201.75;4790598;30;20043;-96
2022/06/24 03:41:13;;;;;;;0.20;0.20;;;;;;;17.73;48.32;99214.22;4791652;30;20050;-96
2022/06/24 03:43:46;;;;;;;0.30;0.30;;;;;;;17.92;47.98;99224.44;4808645;29;20092;-95
2022/06/24 03:46:14;;;;;;;0.30;0.30;;;;;;;17.90;47.88;99222.03;4806197;30;20132;-96
2022/06/24 03:48:44;;;;;;;0.30;0.30;;;;;;;18.08;47.62;99225.94;4808328;29;20153;-96
2022/06/24 03:57:31;;;;;;;0.30;0.30;;;;;;;18.32;47.15;99222.41;5013268;24;20083;-96
2022/06/24 03:59:59;;;;;;;0.30;0.30;;;;;;;18.40;46.73;99219.84;4793701;30;20051;-92
2022/06/24 04:02:38;;;;;;;0.30;0.30;;;;;;;18.55;46.68;99213.38;4794490;29;20024;-95
2022/06/24 04:08:35;;;;;;;0.30;0.30;;;;;;;18.75;46.75;99214.25;4773857;30;20062;-96
2022/06/24 04:12:00;;;;;;;0.30;0.30;;;;;;;18.95;45.42;99227.66;4740740;30;20061;-96
2022/06/24 04:15:14;;;;;;;0.30;0.30;;;;;;;18.99;44.58;99230.63;4747912;30;20083;-96
2022/06/24 04:17:43;;;;;;;0.30;0.30;;;;;;;18.95;44.16;99213.19;4738673;30;20056;-95
2022/06/24 04:20:14;;;;;;;0.30;0.30;;;;;;;19.04;44.35;99225.91;4738996;30;20033;-95
2022/06/24 04:22:44;;;;;;;0.30;0.30;;;;;;;19.12;43.29;99224.44;4743489;30;20040;-93
2022/06/24 04:25:12;;;;;;;0.20;0.20;;;;;;;19.13;43.67;99223.31;4756102;30;20088;-96
2022/06/24 04:27:55;;;;;;;0.30;0.30;;;;;;;19.21;42.94;99227.31;4729153;30;20116;-95
2022/06/24 04:30:28;;;;;;;0.30;0.30;;;;;;;19.31;43.09;99218.94;4729620;30;20094;-95
2022/06/24 04:33:10;;;;;;;0.30;0.30;;;;;;;19.44;42.03;99234.59;4730514;30;20072;-94
2022/06/24 04:35:39;;;;;;;0.30;0.30;;;;;;;19.44;42.07;99231.88;4744465;30;20548;-95
2022/06/24 04:38:09;;;;;;;0.30;0.30;;;;;;;19.56;42.50;99233.34;4747366;30;20066;-94
2022/06/24 04:40:37;;;;;;;0.30;0.30;;;;;;;19.60;42.63;99226.97;4732649;30;20084;-95
2022/06/24 04:43:20;;;;;;;0.30;0.30;;;;;;;19.62;41.95;99226.66;4712673;30;20076;-94
2022/06/24 04:45:50;;;;;;;0.30;0.30;;;;;;;19.73;42.45;99235.56;4704236;30;20053;-95
2022/06/24 04:48:30;;;;;;;0.30;0.30;;;;;;;19.89;41.95;99232.25;4749849;30;20060;-94
2022/06/24 04:51:03;;;;;;;0.30;0.30;;;;;;;19.98;41.45;99223.34;4761672;30;20064;-94
2022/06/24 04:53:31;;;;;;;0.30;0.30;;;;;;;20.11;41.71;99239.00;4759975;30;20508;-94
2022/06/24 04:55:58;;;;;;;0.30;0.30;;;;;;;20.12;41.79;99233.22;4743268;30;20064;-94
2022/06/24 04:58:25;;;;;;;0.30;0.30;;;;;;;20.28;41.33;99236.50;4758586;30;20056;-94
2022/06/24 05:00:52;;;;;;;0.30;0.30;;;;;;;20.37;40.85;99250.31;4760676;30;20044;-95
2022/06/24 05:03:20;;;;;;;0.25;0.25;;;;;;;20.34;40.89;99237.22;4762362;30;20052;-93
2022/06/24 05:06:12;;;;;;;0.20;0.20;;;;;;;20.29;40.61;99229.91;4761478;30;20125;-94
2022/06/24 05:08:55;;;;;;;0.30;0.30;;;;;;;20.38;41.30;99243.69;4767440;30;20064;-94
2022/06/24 05:11:22;;;;;;;0.30;0.30;;;;;;;20.40;40.92;99237.91;4770177;30;20059;-95
2022/06/24 05:13:49;;;;;;;0.20;0.20;;;;;;;20.51;40.79;99236.63;4749401;30;20056;-93
2022/06/24 05:16:19;;;;;;;0.30;0.30;;;;;;;20.50;41.30;99229.50;4758537;30;20052;-94
2022/06/24 05:19:10;;;;;;;0.30;0.30;;;;;;;20.60;41.34;99239.47;4752850;30;20063;-92
2022/06/24 05:21:40;;;;;;;0.30;0.30;;;;;;;20.68;41.19;99242.31;4767195;30;20094;-94
2022/06/24 05:24:08;;;;;;;0.30;0.30;;;;;;;20.73;40.29;99231.22;4751743;30;20060;-94
2022/06/24 05:26:36;;;;;;;0.30;0.30;;;;;;;20.80;40.50;99238.25;4757727;30;20044;-92
2022/06/24 05:29:04;;;;;;;0.30;0.30;;;;;;;20.88;40.37;99237.53;4756100;30;20056;-92
2022/06/24 05:31:32;;;;;;;0.30;0.30;;;;;;;20.91;40.50;99225.94;4751944;30;20139;-92
2022/06/24 05:33:59;;;;;;;0.30;0.30;;;;;;;20.98;40.50;99240.06;4755082;30;20064;-92
2022/06/24 05:36:29;;;;;;;0.20;0.20;;;;;;;21.04;40.01;99244.31;4764447;30;20052;-93
2022/06/24 05:39:04;;;;;;;0.30;0.30;;;;;;;21.13;38.68;99247.13;4758726;30;20060;-94
2022/06/24 05:41:32;;;;;;;0.30;0.30;;;;;;;21.08;37.83;99241.75;4755256;30;20544;-91
2022/06/24 05:44:00;;;;;;;0.20;0.20;;;;;;;21.11;38.17;99239.19;4756667;30;20078;-92
2022/06/24 05:46:28;;;;;;;0.20;0.20;;;;;;;21.23;38.69;99248.84;4743729;30;20140;-94
2022/06/24 05:48:57;;;;;;;0.30;0.30;;;;;;;21.39;37.99;99245.44;4751673;30;20059;-91
2022/06/24 05:51:25;;;;;;;0.30;0.30;;;;;;;21.53;38.38;99242.66;4752174;30;20078;-91
2022/06/24 05:56:40;;;;;;;0.30;0.30;;;;;;;21.67;38.42;99231.59;4752333;30;20113;-91
2022/06/24 05:59:13;;;;;;;0.20;0.20;;;;;;;21.77;37.58;99225.06;4762132;30;20066;-88
2022/06/24 06:01:41;;;;;;;0.30;0.30;;;;;;;21.87;38.16;99224.78;4751764;30;20056;-91
2022/06/24 06:04:09;;;;;;;0.20;0.20;;;;;;;21.90;38.51;99223.34;4756888;30;20060;-94
2022/06/24 06:06:36;;;;;;;0.25;0.25;;;;;;;21.99;38.05;99227.78;4751473;30;20060;-91
2022/06/24 06:09:04;;;;;;;0.20;0.20;;;;;;;22.04;37.81;99233.13;4750533;30;20128;-90
2022/06/24 06:11:31;;;;;;;0.20;0.20;;;;;;;22.14;37.21;99226.56;4745729;30;20056;-89
2022/06/24 06:13:58;;;;;;;0.30;0.30;;;;;;;22.16;36.17;99226.25;4751987;30;20060;-92
2022/06/24 06:16:27;;;;;;;0.20;0.20;;;;;;;22.08;35.63;99227.84;4766857;30;20057;-92
2022/06/24 06:18:55;;;;;;;0.20;0.20;;;;;;;22.15;36.61;99225.44;4750017;30;20090;-92
2022/06/24 06:21:25;;;;;;;0.20;0.20;;;;;;;22.38;37.00;99225.41;4752271;30;20131;-94
2022/06/24 06:23:56;;;;;;;0.20;0.20;;;;;;;22.46;36.31;99221.91;4739709;30;20064;-89
2022/06/24 06:26:23;;;;;;;0.20;0.20;;;;;;;22.48;36.81;99223.19;4762364;30;20643;-90
2022/06/24 06:28:53;;;;;;;0.25;0.25;;;;;;;22.63;36.00;99221.94;4754064;30;20129;-92
2022/06/24 06:31:22;;;;;;;0.25;0.25;;;;;;;22.61;35.61;99217.88;4750213;30;20114;-90
2022/06/24 06:33:51;;;;;;;0.30;0.30;;;;;;;22.61;35.59;99212.38;4749922;30;20049;-92
2022/06/24 06:36:19;;;;;;;0.20;0.20;;;;;;;22.77;35.75;99213.56;4746548;30;20073;-91
2022/06/24 06:38:46;;;;;;;0.20;0.20;;;;;;;22.83;35.85;99217.78;4737551;30;20060;-92
2022/06/24 06:41:14;;;;;;;0.20;0.20;;;;;;;22.87;35.26;99218.75;4716668;30;20110;-90
2022/06/24 06:43:43;;;;;;;0.25;0.25;;;;;;;22.89;35.33;99213.75;4743563;30;20080;-91
2022/06/24 06:46:10;;;;;;;0.30;0.30;;;;;;;22.99;34.58;99217.34;4724243;30;20057;-90
2022/06/24 06:48:38;;;;;;;0.28;0.28;;;;;;;22.89;34.18;99212.94;4736515;30;20052;-93
2022/06/24 06:51:06;;;;;;;0.28;0.28;;;;;;;22.65;34.40;99205.91;4767925;30;20067;-91
2022/06/24 06:53:33;;;;;;;0.20;0.20;;;;;;;22.81;34.48;99211.78;4743196;30;20061;-93
2022/06/24 06:56:00;;;;;;;0.20;0.20;;;;;;;22.87;35.59;99210.50;4738532;30;20068;-92
2022/06/24 06:58:32;;;;;;;0.20;0.20;;;;;;;23.10;35.17;99208.47;4730605;30;20049;-92
2022/06/24 07:01:00;;;;;;;0.20;0.20;;;;;;;23.20;33.90;99210.09;4748094;30;20121;-93
2022/06/24 07:03:27;;;;;;;0.30;0.30;;;;;;;23.25;35.03;99209.94;4744124;30;20068;-91
2022/06/24 07:05:55;;;;;;;0.20;0.20;;;;;;;23.31;34.51;99211.38;4731511;30;20091;-92
2022/06/24 07:08:23;;;;;;;0.30;0.30;;;;;;;23.16;33.76;99203.59;4743462;30;20106;-92
2022/06/24 07:10:51;;;;;;;0.30;0.30;;;;;;;22.99;34.06;99206.34;4747275;30;20155;-92
2022/06/24 07:13:19;;;;;;;0.30;0.30;;;;;;;23.11;35.14;99212.81;4745751;30;20102;-93
2022/06/24 07:15:46;;;;;;;0.20;0.20;;;;;;;23.28;34.05;99213.97;4745637;30;20056;-93
2022/06/24 07:18:14;;;;;;;0.20;0.20;;;;;;;23.26;33.66;99206.03;4744167;30;20446;-93
2022/06/24 07:20:43;;;;;;;0.20;0.20;;;;;;;23.22;33.93;99202.31;4745790;30;20084;-93
2022/06/24 07:23:10;;;;;;;0.20;0.20;;;;;;;23.34;35.27;99202.44;4746137;30;20060;-90
2022/06/24 07:25:38;;;;;;;0.20;0.20;;;;;;;23.60;34.08;99209.91;4746551;30;20056;-93
2022/06/24 07:28:05;;;;;;;0.20;0.20;;;;;;;23.78;34.43;99205.22;4745579;30;20465;-92
2022/06/24 07:30:32;;;;;;;0.22;0.22;;;;;;;23.88;34.18;99207.63;4743658;30;20583;-92
2022/06/24 07:32:59;;;;;;;0.20;0.20;;;;;;;23.75;33.27;99209.44;4743533;30;20056;-93
2022/06/24 07:35:27;;;;;;;0.20;0.20;;;;;;;23.36;34.15;99208.44;4739109;30;20060;-93
2022/06/24 07:38:08;;;;;;;0.20;0.20;;;;;;;23.62;34.57;99209.56;4741725;30;20056;-92
2022/06/24 07:40:41;;;;;;;0.20;0.20;;;;;;;23.82;33.55;99210.88;4742190;30;20155;-93
2022/06/24 07:43:09;;;;;;;0.20;0.20;;;;;;;23.84;34.49;99203.09;4743299;30;20061;-93
2022/06/24 07:45:36;;;;;;;0.20;0.20;;;;;;;24.05;33.71;99205.94;4742310;30;20074;-91
2022/06/24 07:48:04;;;;;;;0.30;0.30;;;;;;;23.93;33.04;99198.38;4741953;30;20064;-91
2022/06/24 07:50:31;;;;;;;0.30;0.30;;;;;;;23.62;32.80;99190.28;4742077;30;20052;-92
2022/06/24 07:52:59;;;;;;;0.30;0.30;;;;;;;23.60;33.36;99198.91;4743976;30;20053;-91
2022/06/24 07:58:12;;;;;;;0.30;0.30;;;;;;;24.34;32.40;99199.69;4749573;30;20064;-93
2022/06/24 08:00:39;;;;;;;0.30;0.30;;;;;;;24.47;33.08;99186.84;4746937;30;20056;-93
2022/06/24 08:03:07;;;;;;;0.30;0.30;;;;;;;24.69;32.38;99192.06;4744424;30;20063;-92
2022/06/24 08:05:34;;;;;;;0.30;0.30;;;;;;;24.73;31.50;99186.66;4744967;30;20079;-92
2022/06/24 08:08:01;;;;;;;0.30;0.30;;;;;;;24.97;32.19;99184.06;4760319;30;20112;-92
2022/06/24 08:10:54;;;;;;;0.30;0.30;;;;;;;25.19;31.87;99188.47;4752518;30;20060;-92
2022/06/24 08:13:35;;;;;;;0.30;0.30;;;;;;;24.99;31.19;99180.97;4744178;30;20070;-91
2022/06/24 08:16:02;;;;;;;0.30;0.30;;;;;;;24.71;31.81;99177.91;4738698;30;20056;-92
2022/06/24 08:18:31;;;;;;;0.30;0.30;;;;;;;25.02;31.89;99186.63;4740418;30;20105;-93
2022/06/24 08:21:03;;;;;;;0.30;0.30;;;;;;;25.38;31.66;99187.19;4743296;30;20076;-92
2022/06/24 08:23:30;;;;;;;0.30;0.30;;;;;;;25.44;31.22;99188.59;4745700;30;20436;-92
2022/06/24 08:25:58;;;;;;;0.30;0.30;;;;;;;25.58;31.77;99191.06;4744336;30;20056;-91
2022/06/24 08:28:39;;;;;;;0.30;0.30;;;;;;;25.88;30.88;99184.28;4744732;30;20059;-92
2022/06/24 08:31:32;;;;;;;0.30;0.30;;;;;;;25.47;31.18;99182.38;4745352;30;20108;-92
2022/06/24 08:34:13;;;;;;;0.30;0.30;;;;;;;25.90;31.05;99182.00;4761545;30;20056;-91
2022/06/24 08:36:40;;;;;;;0.30;0.30;;;;;;;25.94;29.38;99174.59;4726286;30;20052;-92
2022/06/24 08:39:34;;;;;;;0.30;0.30;;;;;;;25.84;30.04;99177.78;4712427;30;20060;-92
2022/06/24 08:42:03;;;;;;;0.30;0.30;;;;;;;25.93;30.66;99161.94;4727279;30;20067;-90
2022/06/24 08:44:31;;;;;;;0.35;0.35;;;;;;;26.08;29.45;99159.63;4725733;30;20080;-91
2022/06/24 08:47:05;;;;;;;0.30;0.30;;;;;;;26.45;29.75;99163.22;4740111;30;20532;-91
2022/06/24 08:49:35;;;;;;;0.30;0.30;;;;;;;26.98;29.85;99163.28;4743906;30;20056;-91
2022/06/24 08:52:05;;;;;;;0.32;0.32;;;;;;;27.49;28.93;99157.25;4741676;30;20091;-92
2022/06/24 08:54:32;;;;;;;0.40;0.40;;;;;;;27.78;28.37;99172.72;4742708;30;20049;-90
2022/06/24 08:57:02;;;;;;;0.40;0.40;;;;;;;28.08;27.96;99164.78;4747737;30;20056;-90
2022/06/24 08:59:43;;;;;;;0.32;0.32;;;;;;;28.37;27.94;99160.75;4753039;30;20064;-90
2022/06/24 09:02:25;;;;;;;0.40;0.40;;;;;;;28.64;27.27;99170.13;4723317;30;20060;-91
2022/06/24 09:04:52;;;;;;;0.30;0.30;;;;;;;28.52;26.83;99167.47;4732437;30;20053;-91
2022/06/24 09:07:26;;;;;;;0.35;0.35;;;;;;;28.76;26.86;99151.75;4747516;30;20060;-90
2022/06/24 09:10:04;;;;;;;0.40;0.40;;;;;;;28.98;26.41;99156.59;4746544;30;20059;-92
2022/06/24 09:12:43;;;;;;;0.40;0.40;;;;;;;28.99;26.55;99151.84;4749733;30;20060;-92
2022/06/24 09:15:11;;;;;;;0.30;0.30;;;;;;;29.37;26.42;99160.22;4751560;30;20504;-94
2022/06/24 09:17:39;;;;;;;0.40;0.40;;;;;;;29.47;25.26;99155.22;4754189;30;20060;-91
2022/06/24 09:20:15;;;;;;;0.30;0.30;;;;;;;29.32;26.50;99145.81;4744898;30;20071;-91
2022/06/24 09:23:07;;;;;;;0.30;0.30;;;;;;;29.43;27.28;99159.94;4743396;30;20064;-92
2022/06/24 09:25:49;;;;;;;0.30;0.30;;;;;;;29.70;26.58;99152.50;4741725;30;20080;-92
2022/06/24 09:28:30;;;;;;;0.30;0.30;;;;;;;29.75;26.94;99150.25;4741064;30;20122;-93
2022/06/24 09:31:05;;;;;;;0.30;0.30;;;;;;;29.57;26.58;99154.63;4740273;30;20068;-92
2022/06/24 09:33:40;;;;;;;0.30;0.30;;;;;;;29.58;26.76;99153.47;4743904;30;20095;-92
2022/06/24 09:36:10;;;;;;;0.30;0.30;;;;;;;29.67;26.17;99145.72;4745776;30;20061;-92
2022/06/24 09:39:04;;;;;;;0.30;0.30;;;;;;;30.22;26.06;99135.13;4738551;30;20052;-93
2022/06/24 09:41:41;;;;;;;0.30;0.30;;;;;;;30.23;25.04;99136.75;4741988;30;20103;-93
2022/06/24 09:44:09;;;;;;;0.30;0.30;;;;;;;30.46;24.88;99138.69;4754826;30;20057;-95
2022/06/24 09:46:36;;;;;;;0.30;0.30;;;;;;;30.75;24.32;99133.56;4745147;30;20057;-93
2022/06/24 09:49:09;;;;;;;0.30;0.30;;;;;;;30.79;24.32;99139.97;4749583;30;20464;-93
2022/06/24 09:51:39;;;;;;;0.40;0.40;;;;;;;30.87;24.67;99141.72;4740697;30;20068;-93
2022/06/24 09:54:20;;;;;;;0.30;0.30;;;;;;;31.17;24.29;99138.09;4740831;30;20048;-93
2022/06/24 09:56:49;;;;;;;0.30;0.30;;;;;;;31.32;24.18;99128.72;4759679;30;20063;-93
2022/06/24 10:02:18;;;;;;;0.40;0.40;;;;;;;31.88;23.16;99122.16;4754752;30;20398;-94
2022/06/24 10:05:01;;;;;;;0.40;0.40;;;;;;;31.99;23.10;99116.69;4740959;30;20542;-91
2022/06/24 10:07:32;;;;;;;0.40;0.40;;;;;;;32.27;23.63;99126.50;4755294;30;20084;-89
2022/06/24 10:10:05;;;;;;;0.40;0.40;;;;;;;32.30;22.66;99129.28;4756069;30;20083;-91
2022/06/24 10:12:38;;;;;;;0.40;0.40;;;;;;;32.26;22.83;99113.69;4743012;30;20092;-93
2022/06/24 10:15:06;;;;;;;0.30;0.30;;;;;;;32.37;22.79;99118.19;4741617;30;20049;-90
2022/06/24 10:17:34;;;;;;;0.40;0.40;;;;;;;32.32;22.83;99123.34;4769622;30;20531;-93
2022/06/24 10:20:27;;;;;;;0.30;0.30;;;;;;;32.36;22.91;99124.97;4769429;30;20152;-96
2022/06/24 10:23:01;;;;;;;0.30;0.30;;;;;;;32.54;23.19;99119.53;4770751;30;20104;-95
2022/06/24 10:25:47;;;;;;;0.30;0.30;;;;;;;33.05;22.48;99123.41;4752413;30;20052;-95
2022/06/24 10:28:14;;;;;;;0.40;0.40;;;;;;;32.77;22.40;99119.25;4758284;30;20036;-88
2022/06/24 10:30:46;;;;;;;0.40;0.40;;;;;;;32.66;22.25;99121.19;4755006;30;20061;-95
2022/06/24 10:33:21;;;;;;;0.40;0.40;;;;;;;32.80;22.35;99121.25;4758059;30;20064;-96
2022/06/24 10:35:55;;;;;;;0.30;0.30;;;;;;;33.26;21.98;99110.69;4766787;30;20067;-96
2022/06/24 10:38:24;;;;;;;0.30;0.30;;;;;;;33.49;22.05;99111.16;4778008;30;20053;-96
2022/06/24 10:44:40;;;;;;;0.30;0.30;;;;;;;33.30;21.72;99103.09;4789128;29;20036;-95
2022/06/24 10:47:27;;;;;;;0.40;0.40;;;;;;;32.95;22.33;99110.97;4793185;29;20048;-90
2022/06/24 10:53:21;;;;;;;0.40;0.40;;;;;;;33.37;21.55;99101.16;5031207;24;20084;-94
2022/06/24 10:55:49;;;;;;;0.30;0.30;;;;;;;33.75;21.75;99107.22;4773025;29;20040;-95
2022/06/24 10:58:21;;;;;;;0.40;0.40;;;;;;;34.48;21.20;99112.41;4768857;30;20162;-96
2022/06/24 11:01:07;;;;;;;0.30;0.30;;;;;;;34.64;20.54;99095.22;4763238;30;20044;-95
2022/06/24 11:03:50;;;;;;;0.40;0.40;;;;;;;34.55;20.56;99082.78;4757178;30;20060;-85
2022/06/24 11:06:20;;;;;;;0.30;0.30;;;;;;;34.38;19.84;99098.44;4761221;30;20082;-96
2022/06/24 11:09:16;;;;;;;0.30;0.30;;;;;;;34.98;20.06;99097.47;4737013;30;20040;-95
2022/06/24 11:12:05;;;;;;;0.30;0.30;;;;;;;34.86;19.42;99095.13;4778406;29;20059;-94
2022/06/24 11:14:33;;;;;;;0.30;0.30;;;;;;;34.85;19.24;99094.31;4756781;30;20080;-90
2022/06/24 11:17:12;;;;;;;0.40;0.40;;;;;;;35.19;19.02;99090.19;4742623;30;20048;-91
2022/06/24 11:19:42;;;;;;;0.30;0.30;;;;;;;35.06;18.92;99093.44;4764874;30;20056;-92
2022/06/24 11:25:19;;;;;;;0.30;0.30;;;;;;;36.20;18.63;99099.53;4856640;24;20043;-94
2022/06/24 11:27:47;;;;;;;0.30;0.30;;;;;;;36.33;18.72;99097.00;4774881;29;20060;-90
2022/06/24 11:30:16;;;;;;;0.40;0.40;;;;;;;36.42;18.25;99097.31;4780614;30;20056;-92
2022/06/24 11:32:59;;;;;;;0.30;0.30;;;;;;;36.20;18.47;99083.47;4778755;29;20039;-86
2022/06/24 11:35:27;;;;;;;0.30;0.30;;;;;;;36.05;18.84;99081.97;4749819;30;20057;-92
2022/06/24 11:37:59;;;;;;;0.40;0.40;;;;;;;36.23;18.34;99081.84;4743123;30;20045;-93
2022/06/24 11:40:40;;;;;;;0.32;0.32;;;;;;;36.42;18.32;99088.88;4743214;30;20083;-92
2022/06/24 11:43:12;;;;;;;0.35;0.35;;;;;;;35.65;18.77;99077.91;4741577;30;20068;-92
2022/06/24 11:45:45;;;;;;;0.32;0.32;;;;;;;35.85;18.64;99078.94;4760496;30;20052;-93
2022/06/24 11:48:22;;;;;;;0.30;0.30;;;;;;;36.10;17.59;99075.16;4777851;30;20516;-92
2022/06/24 11:51:20;;;;;;;0.30;0.30;;;;;;;35.76;18.94;99064.59;4762692;30;20056;-92
2022/06/24 11:54:04;;;;;;;0.30;0.30;;;;;;;36.11;18.63;99071.94;4774678;30;20064;-93
2022/06/24 11:56:47;;;;;;;0.30;0.30;;;;;;;36.73;18.04;99072.09;4775915;30;20048;-90
2022/06/24 11:59:26;;;;;;;0.30;0.30;;;;;;;36.83;17.64;99071.97;4769668;30;20059;-89
2022/06/24 12:01:56;;;;;;;0.30;0.30;;;;;;;36.24;18.36;99070.19;4771558;30;20109;-94
2022/06/24 12:04:27;;;;;;;0.30;0.30;;;;;;;35.99;18.47;99061.19;4763718;29;20047;-94
2022/06/24 12:07:06;;;;;;;0.30;0.30;;;;;;;35.87;18.61;99068.09;4769958;30;20109;-94
2022/06/24 12:09:39;;;;;;;0.30;0.30;;;;;;;36.21;18.25;99059.81;4769458;30;20058;-93
2022/06/24 12:12:22;;;;;;;0.30;0.30;;;;;;;36.64;18.33;99062.16;4772057;30;20064;-95
2022/06/24 12:14:55;;;;;;;0.30;0.30;;;;;;;36.73;18.65;99066.47;4789193;29;20024;-96
2022/06/24 12:17:50;;;;;;;0.30;0.30;;;;;;;37.36;17.80;99052.78;4782468;29;20991;-93
2022/06/24 12:20:24;;;;;;;0.30;0.30;;;;;;;37.41;17.54;99049.50;4784164;29;20040;-95
2022/06/24 12:23:14;;;;;;;0.30;0.30;;;;;;;38.27;17.05;99059.38;4786076;30;20048;-92
2022/06/24 12:26:14;;;;;;;0.30;0.30;;;;;;;38.24;16.87;99062.25;4782105;30;20208;-90
2022/06/24 12:28:42;;;;;;;0.30;0.30;;;;;;;38.27;16.50;99058.56;4739954;30;20056;-92
2022/06/24 12:31:12;;;;;;;0.30;0.30;;;;;;;38.11;16.99;99050.81;4747353;30;20162;-91
2022/06/24 12:33:55;;;;;;;0.30;0.30;;;;;;;38.26;16.93;99051.34;4764641;30;20048;-91
2022/06/24 12:36:35;;;;;;;;;;;;;;;37.99;16.70;99049.41;4769690;30;20135;-92
2022/06/24 12:39:06;;;;;;;0.30;0.30;;;;;;;38.36;16.78;99047.50;4751375;30;19929;-90
2022/06/24 12:41:47;;;;;;;0.30;0.30;;;;;;;38.45;16.01;99050.59;4739664;30;20055;-89
2022/06/24 12:44:15;;;;;;;0.30;0.30;;;;;;;37.78;16.85;99050.56;4753722;30;20429;-90